createdAt,value
2022-11-27T00:00:48.160Z,22.25
2022-11-27T00:01:52.405Z,22.24
2022-11-27T00:02:56.735Z,22.23
2022-11-27T00:04:01.538Z,22.21
2022-11-27T00:05:06.225Z,22.22
2022-11-27T00:06:10.467Z,22.21
2022-11-27T00:07:14.819Z,22.21
2022-11-27T00:08:19.270Z,22.18
2022-11-27T00:09:23.480Z,22.16
2022-11-27T00:10:27.692Z,22.14
2022-11-27T00:11:31.909Z,22.16
2022-11-27T00:12:36.192Z,22.18
2022-11-27T00:13:40.427Z,22.1
2022-11-27T00:14:44.657Z,22.09
2022-11-27T00:15:48.909Z,22.08
2022-11-27T00:16:53.378Z,22.09
2022-11-27T00:17:57.603Z,22.07
2022-11-27T00:19:01.843Z,22.08
2022-11-27T00:20:06.137Z,22.07
2022-11-27T00:21:13.486Z,22.07
2022-11-27T00:22:17.933Z,22.03
2022-11-27T00:23:22.212Z,22.05
2022-11-27T00:24:26.422Z,22.04
2022-11-27T00:25:30.654Z,22.01
2022-11-27T00:26:37.989Z,22
2022-11-27T00:27:42.530Z,22.01
2022-11-27T00:28:46.776Z,21.98
2022-11-27T00:29:51.010Z,21.99
2022-11-27T00:30:55.267Z,21.98
2022-11-27T00:31:59.741Z,21.94
2022-11-27T00:33:03.973Z,21.96
2022-11-27T00:34:11.341Z,21.96
2022-11-27T00:35:15.571Z,21.94
2022-11-27T00:36:19.791Z,21.94
2022-11-27T00:37:24.010Z,21.93
2022-11-27T00:38:28.248Z,21.94
2022-11-27T00:39:36.904Z,21.92
2022-11-27T00:40:41.198Z,21.89
2022-11-27T00:41:45.438Z,21.87
2022-11-27T00:42:49.776Z,21.87
2022-11-27T00:43:54.008Z,21.83
2022-11-27T00:44:58.277Z,21.85
2022-11-27T00:46:02.537Z,21.87
2022-11-27T00:47:07.073Z,21.88
2022-11-27T00:48:11.387Z,21.89
2022-11-27T00:49:15.639Z,21.88
2022-11-27T00:50:19.867Z,21.91
2022-11-27T00:51:24.082Z,21.84
2022-11-27T00:52:28.317Z,21.84
2022-11-27T00:53:32.551Z,21.84
2022-11-27T00:54:36.851Z,21.85
2022-11-27T00:55:41.709Z,21.85
2022-11-27T00:56:45.928Z,21.81
2022-11-27T00:57:50.165Z,21.8
2022-11-27T00:58:54.399Z,21.74
2022-11-27T00:59:58.631Z,21.78
2022-11-27T01:01:02.847Z,21.8
2022-11-27T01:02:07.213Z,21.77
2022-11-27T01:03:11.773Z,21.79
2022-11-27T01:04:16.196Z,21.78
2022-11-27T01:05:20.433Z,21.75
2022-11-27T01:06:24.663Z,21.77
2022-11-27T01:07:28.910Z,21.75
2022-11-27T01:08:33.395Z,21.73
2022-11-27T01:09:37.595Z,21.73
2022-11-27T01:10:41.814Z,21.75
2022-11-27T01:11:46.087Z,21.72
2022-11-27T01:12:50.325Z,21.66
2022-11-27T01:13:54.550Z,21.67
2022-11-27T01:14:58.795Z,21.71
2022-11-27T01:16:03.080Z,21.71
2022-11-27T01:17:07.666Z,21.72
2022-11-27T01:18:11.878Z,21.7
2022-11-27T01:19:16.101Z,21.67
2022-11-27T01:20:20.434Z,21.7
2022-11-27T01:21:24.704Z,21.69
2022-11-27T01:22:28.929Z,21.7
2022-11-27T01:23:33.168Z,21.67
2022-11-27T01:24:37.585Z,21.69
2022-11-27T01:25:42.821Z,21.69
2022-11-27T01:26:47.106Z,21.67
2022-11-27T01:27:51.330Z,21.64
2022-11-27T01:28:55.550Z,21.65
2022-11-27T01:29:59.757Z,21.67
2022-11-27T01:31:04.051Z,21.66
2022-11-27T01:32:08.502Z,21.62
2022-11-27T01:33:12.738Z,21.6
2022-11-27T01:34:16.959Z,21.66
2022-11-27T01:35:21.178Z,21.6
2022-11-27T01:36:26.516Z,21.59
2022-11-27T01:37:30.766Z,21.61
2022-11-27T01:38:34.985Z,21.58
2022-11-27T01:39:39.212Z,21.58
2022-11-27T01:40:43.446Z,21.57
2022-11-27T01:41:47.648Z,21.59
2022-11-27T01:42:51.886Z,21.62
2022-11-27T01:43:56.115Z,21.58
2022-11-27T01:45:00.310Z,21.53
2022-11-27T01:46:04.592Z,21.55
2022-11-27T01:47:08.986Z,21.57
2022-11-27T01:48:14.311Z,21.57
2022-11-27T01:49:18.541Z,21.56
2022-11-27T01:50:22.777Z,21.55
2022-11-27T01:51:27.048Z,21.53
2022-11-27T01:52:31.276Z,21.49
2022-11-27T01:53:35.506Z,21.49
2022-11-27T01:54:40.029Z,21.5
2022-11-27T01:55:45.200Z,21.51
2022-11-27T01:56:49.440Z,21.51
2022-11-27T01:57:53.672Z,21.51
2022-11-27T01:58:57.890Z,21.52
2022-11-27T02:00:02.117Z,21.48
2022-11-27T02:01:06.348Z,21.49
2022-11-27T02:02:10.675Z,21.49
2022-11-27T02:03:15.289Z,21.51
2022-11-27T02:04:19.697Z,21.49
2022-11-27T02:05:23.947Z,21.49
2022-11-27T02:06:28.179Z,21.5
2022-11-27T02:07:32.446Z,21.5
2022-11-27T02:08:36.968Z,21.49
2022-11-27T02:09:41.200Z,21.5
2022-11-27T02:10:45.633Z,21.52
2022-11-27T02:11:49.862Z,21.51
2022-11-27T02:12:54.078Z,21.49
2022-11-27T02:13:58.280Z,21.48
2022-11-27T02:15:02.499Z,21.48
2022-11-27T02:16:06.991Z,21.45
2022-11-27T02:17:15.031Z,21.47
2022-11-27T02:18:19.264Z,21.45
2022-11-27T02:19:23.533Z,21.45
2022-11-27T02:20:27.761Z,21.43
2022-11-27T02:21:32.018Z,21.44
2022-11-27T02:22:36.267Z,21.43
2022-11-27T02:23:40.530Z,21.43
2022-11-27T02:24:44.755Z,21.45
2022-11-27T02:25:48.988Z,21.44
2022-11-27T02:26:53.210Z,21.43
2022-11-27T02:27:57.429Z,21.41
2022-11-27T02:29:01.677Z,21.42
2022-11-27T02:30:05.893Z,21.4
2022-11-27T02:31:10.167Z,21.4
2022-11-27T02:32:14.625Z,21.39
2022-11-27T02:33:18.847Z,21.39
2022-11-27T02:34:23.092Z,21.41
2022-11-27T02:35:27.308Z,21.38
2022-11-27T02:36:31.521Z,21.39
2022-11-27T02:37:35.732Z,21.41
2022-11-27T02:38:40.061Z,21.38
2022-11-27T02:39:44.279Z,21.4
2022-11-27T02:40:48.514Z,21.41
2022-11-27T02:41:52.743Z,21.4
2022-11-27T02:42:56.997Z,21.4
2022-11-27T02:44:01.258Z,21.4
2022-11-27T02:45:05.513Z,21.36
2022-11-27T02:46:09.789Z,21.37
2022-11-27T02:47:14.195Z,21.37
2022-11-27T02:48:18.411Z,21.37
2022-11-27T02:49:22.625Z,21.38
2022-11-27T02:50:26.850Z,21.35
2022-11-27T02:51:31.071Z,21.38
2022-11-27T02:52:35.557Z,21.36
2022-11-27T02:53:39.826Z,21.36
2022-11-27T02:54:44.097Z,21.35
2022-11-27T02:55:48.313Z,21.34
2022-11-27T02:56:52.549Z,21.29
2022-11-27T02:57:56.799Z,21.32
2022-11-27T02:59:01.077Z,21.32
2022-11-27T03:00:05.339Z,21.34
2022-11-27T03:01:09.606Z,21.32
2022-11-27T03:02:13.936Z,21.34
2022-11-27T03:03:18.470Z,21.33
2022-11-27T03:04:22.879Z,21.32
2022-11-27T03:05:27.081Z,21.33
2022-11-27T03:06:31.327Z,21.28
2022-11-27T03:07:36.065Z,21.24
2022-11-27T03:08:40.468Z,21.29
2022-11-27T03:09:44.775Z,21.3
2022-11-27T03:10:49.003Z,21.31
2022-11-27T03:11:53.228Z,21.32
2022-11-27T03:12:57.470Z,21.34
2022-11-27T03:14:01.680Z,21.33
2022-11-27T03:15:05.916Z,21.33
2022-11-27T03:16:10.209Z,21.34
2022-11-27T03:17:14.630Z,21.34
2022-11-27T03:18:18.839Z,21.34
2022-11-27T03:19:23.057Z,21.34
2022-11-27T03:20:27.300Z,21.33
2022-11-27T03:21:31.505Z,21.31
2022-11-27T03:22:35.730Z,21.32
2022-11-27T03:23:39.978Z,21.35
2022-11-27T03:24:44.232Z,21.32
2022-11-27T03:25:48.459Z,21.32
2022-11-27T03:26:52.681Z,21.34
2022-11-27T03:27:56.915Z,21.34
2022-11-27T03:29:01.127Z,21.33
2022-11-27T03:30:05.357Z,21.32
2022-11-27T03:31:09.620Z,21.31
2022-11-27T03:32:14.099Z,21.27
2022-11-27T03:33:18.328Z,21.28
2022-11-27T03:34:22.570Z,21.28
2022-11-27T03:35:26.807Z,21.26
2022-11-27T03:36:31.035Z,21.28
2022-11-27T03:37:35.247Z,21.29
2022-11-27T03:38:39.460Z,21.26
2022-11-27T03:39:43.686Z,21.27
2022-11-27T03:40:47.930Z,21.27
2022-11-27T03:41:52.135Z,21.25
2022-11-27T03:42:56.348Z,21.27
2022-11-27T03:44:00.621Z,21.27
2022-11-27T03:45:04.846Z,21.24
2022-11-27T03:46:09.091Z,21.24
2022-11-27T03:47:13.548Z,21.24
2022-11-27T03:48:17.958Z,21.24
2022-11-27T03:49:22.168Z,21.22
2022-11-27T03:50:26.442Z,21.18
2022-11-27T03:51:30.678Z,21.17
2022-11-27T03:52:34.894Z,21.18
2022-11-27T03:53:39.150Z,21.21
2022-11-27T03:54:43.368Z,21.21
2022-11-27T03:55:47.596Z,21.2
2022-11-27T03:56:51.846Z,21.19
2022-11-27T03:57:56.247Z,21.16
2022-11-27T03:59:00.536Z,21.14
2022-11-27T04:00:04.817Z,21.14
2022-11-27T04:01:09.063Z,21.16
2022-11-27T04:02:13.292Z,21.15
2022-11-27T04:03:17.778Z,21.14
2022-11-27T04:04:22.091Z,21.15
2022-11-27T04:05:26.547Z,21.19
2022-11-27T04:06:30.781Z,21.19
2022-11-27T04:07:35.082Z,21.18
2022-11-27T04:08:39.470Z,21.17
2022-11-27T04:09:43.729Z,21.15
2022-11-27T04:10:47.945Z,21.12
2022-11-27T04:11:52.167Z,21.1
2022-11-27T04:12:56.399Z,21.1
2022-11-27T04:14:00.634Z,21.14
2022-11-27T04:15:04.869Z,21.12
2022-11-27T04:16:09.169Z,21.12
2022-11-27T04:17:13.691Z,21.11
2022-11-27T04:18:17.921Z,21.1
2022-11-27T04:19:22.213Z,21.11
2022-11-27T04:20:26.437Z,21.1
2022-11-27T04:21:30.690Z,21.13
2022-11-27T04:22:35.231Z,21.12
2022-11-27T04:23:39.452Z,21.09
2022-11-27T04:24:43.680Z,21.13
2022-11-27T04:25:47.929Z,21.14
2022-11-27T04:26:52.158Z,21.13
2022-11-27T04:27:56.392Z,21.09
2022-11-27T04:29:00.611Z,21.12
2022-11-27T04:30:04.848Z,21.14
2022-11-27T04:31:10.211Z,21.14
2022-11-27T04:32:14.731Z,21.14
2022-11-27T04:33:18.989Z,21.13
2022-11-27T04:34:24.222Z,21.13
2022-11-27T04:35:28.424Z,21.11
2022-11-27T04:36:37.696Z,21.11
2022-11-27T04:37:43.300Z,21.1
2022-11-27T04:38:47.527Z,21.1
2022-11-27T04:39:51.731Z,21.12
2022-11-27T04:40:55.962Z,21.13
2022-11-27T04:42:00.175Z,21.1
2022-11-27T04:43:04.415Z,21.12
2022-11-27T04:44:08.636Z,21.08
2022-11-27T04:45:12.873Z,21.07
2022-11-27T04:46:17.147Z,21.1
2022-11-27T04:47:21.484Z,21.12
2022-11-27T04:48:25.724Z,21.13
2022-11-27T04:49:29.954Z,21.15
2022-11-27T04:50:34.197Z,21.14
2022-11-27T04:51:38.424Z,21.15
2022-11-27T04:52:42.704Z,21.09
2022-11-27T04:53:46.930Z,21.11
2022-11-27T04:54:54.239Z,21.11
2022-11-27T04:56:03.764Z,21.14
2022-11-27T04:57:08.048Z,21.13
2022-11-27T04:58:12.268Z,21.1
2022-11-27T04:59:16.526Z,21.13
2022-11-27T05:00:20.782Z,21.13
2022-11-27T05:01:25.117Z,21.13
2022-11-27T05:02:29.631Z,21.11
2022-11-27T05:03:34.199Z,21.11
2022-11-27T05:04:38.638Z,21.14
2022-11-27T05:05:43.724Z,21.14
2022-11-27T05:06:51.119Z,21.2
2022-11-27T05:07:55.419Z,21.25
2022-11-27T05:09:00.035Z,21.32
2022-11-27T05:10:04.310Z,21.41
2022-11-27T05:11:08.550Z,21.52
2022-11-27T05:12:12.757Z,21.63
2022-11-27T05:13:16.968Z,21.73
2022-11-27T05:14:21.420Z,21.84
2022-11-27T05:15:25.606Z,21.92
2022-11-27T05:16:29.865Z,21.99
2022-11-27T05:17:34.259Z,22.05
2022-11-27T05:18:38.468Z,22.11
2022-11-27T05:19:42.697Z,22.16
2022-11-27T05:20:46.920Z,22.18
2022-11-27T05:21:51.379Z,22.17
2022-11-27T05:22:55.619Z,22.21
2022-11-27T05:23:59.815Z,22.23
2022-11-27T05:25:04.045Z,22.26
2022-11-27T05:26:08.275Z,22.27
2022-11-27T05:27:12.529Z,22.3
2022-11-27T05:28:16.773Z,22.32
2022-11-27T05:29:29.361Z,22.32
2022-11-27T05:30:33.574Z,22.34
2022-11-27T05:31:37.835Z,22.37
2022-11-27T05:32:42.369Z,22.39
2022-11-27T05:33:46.587Z,22.42
2022-11-27T05:34:50.783Z,22.43
2022-11-27T05:35:55.050Z,22.46
2022-11-27T05:36:59.283Z,22.47
2022-11-27T05:38:03.551Z,22.48
2022-11-27T05:39:07.847Z,22.47
2022-11-27T05:40:12.102Z,22.48
2022-11-27T05:41:16.299Z,22.52
2022-11-27T05:42:20.527Z,22.53
2022-11-27T05:43:24.748Z,22.53
2022-11-27T05:44:28.974Z,22.54
2022-11-27T05:45:33.273Z,22.59
2022-11-27T05:46:37.585Z,22.67
2022-11-27T05:47:42.072Z,22.69
2022-11-27T05:48:46.306Z,22.7
2022-11-27T05:49:50.500Z,22.69
2022-11-27T05:50:54.756Z,22.73
2022-11-27T05:51:59.065Z,22.73
2022-11-27T05:53:03.290Z,22.75
2022-11-27T05:54:07.516Z,22.76
2022-11-27T05:55:11.736Z,22.78
2022-11-27T05:56:15.990Z,22.78
2022-11-27T05:57:20.207Z,22.8
2022-11-27T05:58:24.432Z,22.82
2022-11-27T05:59:28.665Z,22.81
2022-11-27T06:00:32.877Z,22.84
2022-11-27T06:01:37.205Z,22.86
2022-11-27T06:02:41.783Z,22.84
2022-11-27T06:03:46.411Z,22.84
2022-11-27T06:04:50.927Z,22.84
2022-11-27T06:05:55.170Z,22.85
2022-11-27T06:06:59.395Z,22.84
2022-11-27T06:08:03.647Z,22.82
2022-11-27T06:09:12.388Z,22.81
2022-11-27T06:10:17.207Z,22.79
2022-11-27T06:11:21.422Z,22.76
2022-11-27T06:12:25.647Z,22.74
2022-11-27T06:13:29.873Z,22.72
2022-11-27T06:14:34.069Z,22.69
2022-11-27T06:15:38.323Z,22.67
2022-11-27T06:16:42.633Z,22.63
2022-11-27T06:17:47.066Z,22.59
2022-11-27T06:18:51.290Z,22.57
2022-11-27T06:19:55.515Z,22.55
2022-11-27T06:20:59.755Z,22.53
2022-11-27T06:22:03.989Z,22.5
2022-11-27T06:23:08.230Z,22.48
2022-11-27T06:24:12.461Z,22.45
2022-11-27T06:25:16.719Z,22.43
2022-11-27T06:26:20.965Z,22.4
2022-11-27T06:27:25.173Z,22.38
2022-11-27T06:28:29.396Z,22.37
2022-11-27T06:29:33.601Z,22.35
2022-11-27T06:30:37.832Z,22.34
2022-11-27T06:31:42.126Z,22.31
2022-11-27T06:32:46.620Z,22.3
2022-11-27T06:33:50.838Z,22.27
2022-11-27T06:34:55.126Z,22.27
2022-11-27T06:35:59.325Z,22.27
2022-11-27T06:37:03.549Z,22.28
2022-11-27T06:38:15.333Z,22.31
2022-11-27T06:39:19.967Z,22.34
2022-11-27T06:40:24.204Z,22.38
2022-11-27T06:41:28.433Z,22.43
2022-11-27T06:42:32.695Z,22.47
2022-11-27T06:43:36.937Z,22.51
2022-11-27T06:44:41.437Z,22.55
2022-11-27T06:45:46.226Z,22.59
2022-11-27T06:46:50.645Z,22.62
2022-11-27T06:47:54.852Z,22.65
2022-11-27T06:48:59.075Z,22.62
2022-11-27T06:50:03.293Z,22.61
2022-11-27T06:51:07.529Z,22.62
2022-11-27T06:52:11.782Z,22.62
2022-11-27T06:53:16.223Z,22.59
2022-11-27T06:54:20.430Z,22.58
2022-11-27T06:55:24.684Z,22.57
2022-11-27T06:56:28.905Z,22.56
2022-11-27T06:57:33.118Z,22.54
2022-11-27T06:58:37.361Z,22.51
2022-11-27T06:59:41.587Z,22.51
2022-11-27T07:00:45.908Z,22.48
2022-11-27T07:01:50.355Z,22.46
2022-11-27T07:02:54.866Z,22.45
2022-11-27T07:03:59.132Z,22.44
2022-11-27T07:05:03.358Z,22.42
2022-11-27T07:06:07.696Z,22.39
2022-11-27T07:07:12.195Z,22.38
2022-11-27T07:08:16.644Z,22.36
2022-11-27T07:09:20.867Z,22.33
2022-11-27T07:10:25.136Z,22.31
2022-11-27T07:11:29.716Z,22.3
2022-11-27T07:12:33.931Z,22.29
2022-11-27T07:13:39.182Z,22.26
2022-11-27T07:14:43.392Z,22.24
2022-11-27T07:15:47.620Z,22.22
2022-11-27T07:16:54.184Z,22.22
2022-11-27T07:17:58.694Z,22.2
2022-11-27T07:19:02.924Z,22.18
2022-11-27T07:20:07.141Z,22.18
2022-11-27T07:21:11.385Z,22.17
2022-11-27T07:22:15.632Z,22.17
2022-11-27T07:23:19.833Z,22.16
2022-11-27T07:24:24.049Z,22.19
2022-11-27T07:25:28.243Z,22.23
2022-11-27T07:26:32.488Z,22.31
2022-11-27T07:27:36.731Z,22.38
2022-11-27T07:28:40.974Z,22.46
2022-11-27T07:29:45.402Z,22.52
2022-11-27T07:30:49.671Z,22.55
2022-11-27T07:31:54.035Z,22.59
2022-11-27T07:32:58.578Z,22.63
2022-11-27T07:34:04.879Z,22.69
2022-11-27T07:35:23.538Z,22.73
2022-11-27T07:36:27.778Z,22.75
2022-11-27T07:37:32.110Z,22.76
2022-11-27T07:38:36.351Z,22.73
2022-11-27T07:40:01.204Z,22.74
2022-11-27T07:41:07.054Z,22.72
2022-11-27T07:42:36.715Z,22.7
2022-11-27T07:43:42.612Z,22.67
2022-11-27T07:44:46.899Z,22.66
2022-11-27T07:45:51.215Z,22.62
2022-11-27T07:46:55.685Z,22.58
2022-11-27T07:47:59.881Z,22.57
2022-11-27T07:49:04.132Z,22.56
2022-11-27T07:50:08.376Z,22.55
2022-11-27T07:51:12.647Z,22.54
2022-11-27T07:52:17.148Z,22.53
2022-11-27T07:53:21.369Z,22.5
2022-11-27T07:54:25.628Z,22.48
2022-11-27T07:55:29.955Z,22.48
2022-11-27T07:56:34.189Z,22.46
2022-11-27T07:57:38.400Z,22.45
2022-11-27T07:58:42.645Z,22.44
2022-11-27T07:59:47.559Z,22.42
2022-11-27T08:00:51.992Z,22.44
2022-11-27T08:01:56.420Z,22.43
2022-11-27T08:03:00.695Z,22.4
2022-11-27T08:04:04.924Z,22.39
2022-11-27T08:05:12.580Z,22.37
2022-11-27T08:06:17.505Z,22.34
2022-11-27T08:07:21.795Z,22.34
2022-11-27T08:08:26.229Z,22.32
2022-11-27T08:09:30.476Z,22.31
2022-11-27T08:10:34.718Z,22.3
2022-11-27T08:11:38.953Z,22.29
2022-11-27T08:12:43.178Z,22.25
2022-11-27T08:13:47.466Z,22.23
2022-11-27T08:14:51.691Z,22.25
2022-11-27T08:15:55.943Z,22.24
2022-11-27T08:17:00.589Z,22.23
2022-11-27T08:18:04.820Z,22.21
2022-11-27T08:19:09.057Z,22.22
2022-11-27T08:20:13.258Z,22.22
2022-11-27T08:21:17.515Z,22.25
2022-11-27T08:22:21.743Z,22.31
2022-11-27T08:23:25.967Z,22.36
2022-11-27T08:24:30.200Z,22.42
2022-11-27T08:25:34.442Z,22.56
2022-11-27T08:26:38.667Z,22.63
2022-11-27T08:27:42.895Z,22.6
2022-11-27T08:28:47.150Z,22.55
2022-11-27T08:29:51.382Z,22.53
2022-11-27T08:30:55.635Z,22.51
2022-11-27T08:31:59.887Z,22.49
2022-11-27T08:33:04.404Z,22.46
2022-11-27T08:34:08.632Z,22.44
2022-11-27T08:35:12.901Z,22.42
2022-11-27T08:36:18.465Z,22.4
2022-11-27T08:37:22.784Z,22.36
2022-11-27T08:38:26.994Z,22.33
2022-11-27T08:39:31.255Z,22.31
2022-11-27T08:40:35.488Z,22.28
2022-11-27T08:41:39.758Z,22.24
2022-11-27T08:42:43.975Z,22.22
2022-11-27T08:43:48.171Z,22.22
2022-11-27T08:44:52.396Z,22.19
2022-11-27T08:45:56.677Z,22.17
2022-11-27T08:47:01.096Z,22.15
2022-11-27T08:48:05.297Z,22.19
2022-11-27T08:49:09.555Z,22.21
2022-11-27T08:50:13.817Z,22.24
2022-11-27T08:51:18.101Z,22.25
2022-11-27T08:52:22.339Z,22.25
2022-11-27T08:53:26.567Z,22.26
2022-11-27T08:54:30.784Z,22.28
2022-11-27T08:55:34.990Z,22.29
2022-11-27T08:56:39.262Z,22.3
2022-11-27T08:57:43.474Z,22.3
2022-11-27T08:58:47.691Z,22.29
2022-11-27T08:59:51.936Z,22.3
2022-11-27T09:00:56.237Z,22.3
2022-11-27T09:02:00.730Z,22.32
2022-11-27T09:03:04.964Z,22.33
2022-11-27T09:04:09.230Z,22.32
2022-11-27T09:05:13.647Z,22.33
2022-11-27T09:06:17.888Z,22.32
2022-11-27T09:07:22.229Z,22.32
2022-11-27T09:08:26.720Z,22.31
2022-11-27T09:09:30.968Z,22.3
2022-11-27T09:10:35.188Z,22.29
2022-11-27T09:11:39.404Z,22.3
2022-11-27T09:12:43.772Z,22.3
2022-11-27T09:13:48.009Z,22.28
2022-11-27T09:14:52.237Z,22.3
2022-11-27T09:15:56.486Z,22.3
2022-11-27T09:17:00.761Z,22.31
2022-11-27T09:18:05.146Z,22.3
2022-11-27T09:19:09.448Z,22.31
2022-11-27T09:20:13.688Z,22.36
2022-11-27T09:21:17.918Z,22.43
2022-11-27T09:22:22.166Z,22.52
2022-11-27T09:23:27.448Z,22.62
2022-11-27T09:24:31.682Z,22.66
2022-11-27T09:25:35.912Z,22.72
2022-11-27T09:26:40.117Z,22.76
2022-11-27T09:27:44.378Z,22.78
2022-11-27T09:28:48.610Z,22.76
2022-11-27T09:29:52.853Z,22.8
2022-11-27T09:30:57.096Z,22.84
2022-11-27T09:32:01.436Z,22.87
2022-11-27T09:33:05.838Z,22.87
2022-11-27T09:34:10.106Z,22.87
2022-11-27T09:35:14.393Z,22.91
2022-11-27T09:36:18.875Z,22.9
2022-11-27T09:37:23.091Z,22.91
2022-11-27T09:38:27.337Z,22.9
2022-11-27T09:39:31.581Z,22.9
2022-11-27T09:40:35.784Z,22.88
2022-11-27T09:41:40.003Z,22.87
2022-11-27T09:42:44.269Z,22.86
2022-11-27T09:43:48.468Z,22.82
2022-11-27T09:44:52.690Z,22.81
2022-11-27T09:45:56.900Z,22.79
2022-11-27T09:47:01.420Z,22.81
2022-11-27T09:48:05.694Z,22.8
2022-11-27T09:49:10.029Z,22.79
2022-11-27T09:50:14.245Z,22.77
2022-11-27T09:51:18.470Z,22.76
2022-11-27T09:52:22.705Z,22.76
2022-11-27T09:53:26.942Z,22.75
2022-11-27T09:54:33.562Z,22.76
2022-11-27T09:55:37.828Z,22.8
2022-11-27T09:56:42.068Z,22.8
2022-11-27T09:57:46.327Z,22.79
2022-11-27T09:58:50.558Z,22.79
2022-11-27T09:59:54.793Z,22.77
2022-11-27T10:00:59.032Z,22.79
2022-11-27T10:02:03.377Z,22.79
2022-11-27T10:03:08.372Z,22.8
2022-11-27T10:04:13.000Z,22.83
2022-11-27T10:05:17.786Z,22.82
2022-11-27T10:06:23.306Z,22.81
2022-11-27T10:07:27.612Z,22.81
2022-11-27T10:08:32.028Z,22.82
2022-11-27T10:09:36.285Z,22.82
2022-11-27T10:10:40.539Z,22.81
2022-11-27T10:11:44.831Z,22.84
2022-11-27T10:12:49.088Z,22.85
2022-11-27T10:13:53.322Z,22.83
2022-11-27T10:14:57.508Z,22.83
2022-11-27T10:16:01.711Z,22.83
2022-11-27T10:17:06.123Z,22.81
2022-11-27T10:18:10.641Z,22.81
2022-11-27T10:19:14.872Z,22.81
2022-11-27T10:20:19.097Z,22.82
2022-11-27T10:21:23.830Z,22.79
2022-11-27T10:22:28.080Z,22.83
2022-11-27T10:23:32.577Z,22.87
2022-11-27T10:24:36.819Z,22.93
2022-11-27T10:25:41.957Z,23.03
2022-11-27T10:26:46.217Z,23.11
2022-11-27T10:27:50.450Z,23.19
2022-11-27T10:28:54.686Z,23.26
2022-11-27T10:29:58.898Z,23.32
2022-11-27T10:31:03.121Z,23.36
2022-11-27T10:32:07.409Z,23.39
2022-11-27T10:33:56.798Z,23.41
2022-11-27T10:35:01.045Z,23.42
2022-11-27T10:36:05.379Z,23.44
2022-11-27T10:37:09.608Z,23.43
2022-11-27T10:38:13.827Z,23.45
2022-11-27T10:39:18.073Z,23.42
2022-11-27T10:40:22.292Z,23.42
2022-11-27T10:41:47.984Z,23.42
2022-11-27T10:42:53.562Z,23.37
2022-11-27T10:43:58.026Z,23.36
2022-11-27T10:45:05.004Z,23.28
2022-11-27T10:46:09.658Z,23.25
2022-11-27T10:47:14.248Z,23.21
2022-11-27T10:48:18.465Z,23.22
2022-11-27T10:49:22.724Z,23.2
2022-11-27T10:50:27.960Z,23.2
2022-11-27T10:51:32.171Z,23.12
2022-11-27T10:52:36.402Z,23.06
2022-11-27T10:53:40.619Z,23
2022-11-27T10:54:44.900Z,22.94
2022-11-27T10:55:49.124Z,22.9
2022-11-27T10:56:53.411Z,22.85
2022-11-27T10:57:57.677Z,22.82
2022-11-27T10:59:01.906Z,22.81
2022-11-27T11:00:06.196Z,22.78
2022-11-27T11:01:10.490Z,22.75
2022-11-27T11:02:14.935Z,22.72
2022-11-27T11:03:19.260Z,22.7
2022-11-27T11:04:39.258Z,22.68
2022-11-27T11:06:11.974Z,22.65
2022-11-27T11:07:25.985Z,22.59
2022-11-27T11:08:30.460Z,22.56
2022-11-27T11:09:34.685Z,22.51
2022-11-27T11:10:38.958Z,22.51
2022-11-27T11:11:43.188Z,22.5
2022-11-27T11:12:47.420Z,22.49
2022-11-27T11:13:51.636Z,22.48
2022-11-27T11:14:55.881Z,22.47
2022-11-27T11:16:00.121Z,22.45
2022-11-27T11:17:04.426Z,22.44
2022-11-27T11:18:08.917Z,22.42
2022-11-27T11:19:13.147Z,22.41
2022-11-27T11:20:17.358Z,22.4
2022-11-27T11:21:21.790Z,22.38
2022-11-27T11:22:26.032Z,22.36
2022-11-27T11:23:30.258Z,22.34
2022-11-27T11:24:34.486Z,22.32
2022-11-27T11:25:38.714Z,22.3
2022-11-27T11:26:42.954Z,22.26
2022-11-27T11:27:47.197Z,22.26
2022-11-27T11:28:51.425Z,22.26
2022-11-27T11:29:55.680Z,22.28
2022-11-27T11:30:59.908Z,22.3
2022-11-27T11:32:04.209Z,22.32
2022-11-27T11:33:08.658Z,22.35
2022-11-27T11:34:12.896Z,22.38
2022-11-27T11:35:17.201Z,22.43
2022-11-27T11:36:21.419Z,22.47
2022-11-27T11:37:25.661Z,22.49
2022-11-27T11:38:29.882Z,22.58
2022-11-27T11:39:34.228Z,22.64
2022-11-27T11:40:38.457Z,22.67
2022-11-27T11:41:42.703Z,22.65
2022-11-27T11:42:49.194Z,22.62
2022-11-27T11:43:55.775Z,22.58
2022-11-27T11:45:00.013Z,22.55
2022-11-27T11:46:04.361Z,22.53
2022-11-27T11:47:08.819Z,22.51
2022-11-27T11:48:13.017Z,22.48
2022-11-27T11:49:17.227Z,22.46
2022-11-27T11:50:21.433Z,22.44
2022-11-27T11:51:29.256Z,22.41
2022-11-27T11:52:33.696Z,22.38
2022-11-27T11:53:37.931Z,22.35
2022-11-27T11:54:42.432Z,22.34
2022-11-27T11:55:47.192Z,22.32
2022-11-27T11:56:51.479Z,22.28
2022-11-27T11:57:55.720Z,22.27
2022-11-27T11:59:03.215Z,22.25
2022-11-27T12:00:08.075Z,22.23
2022-11-27T12:01:26.300Z,22.24
2022-11-27T12:02:31.286Z,22.22
2022-11-27T12:03:35.801Z,22.2
2022-11-27T12:04:40.262Z,22.19
2022-11-27T12:05:45.828Z,22.17
2022-11-27T12:06:50.053Z,22.17
2022-11-27T12:07:54.338Z,22.14
2022-11-27T12:08:58.752Z,22.13
2022-11-27T12:10:03.018Z,22.11
2022-11-27T12:11:07.331Z,22.1
2022-11-27T12:12:11.524Z,22.1
2022-11-27T12:13:15.743Z,22.09
2022-11-27T12:14:19.969Z,22.1
2022-11-27T12:15:24.238Z,22.08
2022-11-27T12:16:28.487Z,22.08
2022-11-27T12:17:32.928Z,22.07
2022-11-27T12:18:37.180Z,22.05
2022-11-27T12:19:41.440Z,22.04
2022-11-27T12:20:45.682Z,22.02
2022-11-27T12:21:49.925Z,22.01
2022-11-27T12:22:54.185Z,22.01
2022-11-27T12:23:58.436Z,22
2022-11-27T12:25:02.715Z,22
2022-11-27T12:26:06.947Z,21.98
2022-11-27T12:27:11.153Z,21.98
2022-11-27T12:28:15.373Z,21.93
2022-11-27T12:29:19.582Z,21.93
2022-11-27T12:30:23.852Z,21.94
2022-11-27T12:31:28.109Z,21.94
2022-11-27T12:32:32.532Z,21.93
2022-11-27T12:33:36.755Z,21.93
2022-11-27T12:34:41.155Z,21.93
2022-11-27T12:35:46.389Z,21.96
2022-11-27T12:36:50.602Z,22
2022-11-27T12:37:54.851Z,22.02
2022-11-27T12:38:59.105Z,22.06
2022-11-27T12:40:03.388Z,22.11
2022-11-27T12:41:07.656Z,22.16
2022-11-27T12:42:11.882Z,22.21
2022-11-27T12:43:24.036Z,22.24
2022-11-27T12:44:28.274Z,22.26
2022-11-27T12:45:32.522Z,22.27
2022-11-27T12:46:36.947Z,22.27
2022-11-27T12:47:41.185Z,22.27
2022-11-27T12:48:45.391Z,22.26
2022-11-27T12:49:49.595Z,22.26
2022-11-27T12:50:53.802Z,22.25
2022-11-27T12:51:58.088Z,22.24
2022-11-27T12:53:02.354Z,22.23
2022-11-27T12:54:06.587Z,22.21
2022-11-27T12:55:10.810Z,22.19
2022-11-27T12:56:15.035Z,22.18
2022-11-27T12:57:19.368Z,22.15
2022-11-27T12:58:23.600Z,22.12
2022-11-27T12:59:27.832Z,22.1
2022-11-27T13:00:32.068Z,22.08
2022-11-27T13:01:36.392Z,22.07
2022-11-27T13:02:40.993Z,22.05
2022-11-27T13:03:45.484Z,22.04
2022-11-27T13:04:49.719Z,22.03
2022-11-27T13:05:53.955Z,22.01
2022-11-27T13:06:58.224Z,21.99
2022-11-27T13:08:02.580Z,21.98
2022-11-27T13:09:07.048Z,21.98
2022-11-27T13:10:11.283Z,21.97
2022-11-27T13:11:15.575Z,21.95
2022-11-27T13:12:19.833Z,21.94
2022-11-27T13:13:24.089Z,21.93
2022-11-27T13:14:28.295Z,21.93
2022-11-27T13:15:32.528Z,21.91
2022-11-27T13:16:36.848Z,21.89
2022-11-27T13:17:41.395Z,21.89
2022-11-27T13:18:45.649Z,21.88
2022-11-27T13:19:49.887Z,21.88
2022-11-27T13:20:54.139Z,21.87
2022-11-27T13:21:58.380Z,21.88
2022-11-27T13:23:02.624Z,21.88
2022-11-27T13:24:06.893Z,21.85
2022-11-27T13:25:11.114Z,21.86
2022-11-27T13:26:15.353Z,21.85
2022-11-27T13:27:23.104Z,21.82
2022-11-27T13:28:27.319Z,21.81
2022-11-27T13:29:31.582Z,21.81
2022-11-27T13:30:36.031Z,21.83
2022-11-27T13:31:40.316Z,21.84
2022-11-27T13:32:44.738Z,21.84
2022-11-27T13:33:48.941Z,21.86
2022-11-27T13:34:53.161Z,21.89
2022-11-27T13:35:57.396Z,21.92
2022-11-27T13:37:01.633Z,21.96
2022-11-27T13:38:05.859Z,22.02
2022-11-27T13:39:10.085Z,22.08
2022-11-27T13:40:14.317Z,22.13
2022-11-27T13:41:18.578Z,22.15
2022-11-27T13:42:22.843Z,22.19
2022-11-27T13:43:27.106Z,22.22
2022-11-27T13:44:31.355Z,22.24
2022-11-27T13:45:35.646Z,22.25
2022-11-27T13:46:40.177Z,22.28
2022-11-27T13:47:44.421Z,22.3
2022-11-27T13:48:48.655Z,22.31
2022-11-27T13:49:52.902Z,22.32
2022-11-27T13:50:57.118Z,22.33
2022-11-27T13:52:01.373Z,22.35
2022-11-27T13:53:05.665Z,22.36
2022-11-27T13:54:09.913Z,22.38
2022-11-27T13:55:14.153Z,22.37
2022-11-27T13:56:18.399Z,22.38